sensor_id;sensor_type;location;lat;lon;timestamp;temperature;humidity
65584;DHT22;62116;43.582;1.470;2023-03-24T00:02:07;14.05;83.50
65584;DHT22;62116;43.582;1.470;2023-03-24T00:04:33;14.08;83.48
65584;DHT22;62116;43.582;1.470;2023-03-24T00:06:59;14.06;83.50
65584;DHT22;62116;43.582;1.470;2023-03-24T00:09:29;14.06;83.54
65584;DHT22;62116;43.582;1.470;2023-03-24T00:11:55;14.08;83.54
65584;DHT22;62116;43.582;1.470;2023-03-24T00:14:21;14.08;83.55
65584;DHT22;62116;43.582;1.470;2023-03-24T00:16:47;14.09;83.43
65584;DHT22;62116;43.582;1.470;2023-03-24T00:19:14;14.09;83.45
65584;DHT22;62116;43.582;1.470;2023-03-24T00:21:40;14.10;83.43
65584;DHT22;62116;43.582;1.470;2023-03-24T00:24:07;14.08;83.54
65584;DHT22;62116;43.582;1.470;2023-03-24T00:26:34;14.09;83.55
65584;DHT22;62116;43.582;1.470;2023-03-24T00:29:02;14.08;83.65
65584;DHT22;62116;43.582;1.470;2023-03-24T00:31:29;14.10;83.53
65584;DHT22;62116;43.582;1.470;2023-03-24T00:33:55;14.08;83.72
65584;DHT22;62116;43.582;1.470;2023-03-24T00:36:21;14.06;83.86
65584;DHT22;62116;43.582;1.470;2023-03-24T00:38:48;14.08;83.74
65584;DHT22;62116;43.582;1.470;2023-03-24T00:41:14;14.08;83.84
65584;DHT22;62116;43.582;1.470;2023-03-24T00:43:44;14.05;83.98
65584;DHT22;62116;43.582;1.470;2023-03-24T00:46:11;14.05;83.98
65584;DHT22;62116;43.582;1.470;2023-03-24T00:48:38;14.06;83.90
65584;DHT22;62116;43.582;1.470;2023-03-24T00:51:06;14.06;84.04
65584;DHT22;62116;43.582;1.470;2023-03-24T00:53:35;14.09;83.89
65584;DHT22;62116;43.582;1.470;2023-03-24T00:56:02;14.08;83.86
65584;DHT22;62116;43.582;1.470;2023-03-24T00:58:27;14.06;83.99
65584;DHT22;62116;43.582;1.470;2023-03-24T01:00:55;14.06;83.97
65584;DHT22;62116;43.582;1.470;2023-03-24T01:03:22;14.04;84.04
65584;DHT22;62116;43.582;1.470;2023-03-24T01:05:54;14.05;83.93
65584;DHT22;62116;43.582;1.470;2023-03-24T01:08:26;13.99;84.15
65584;DHT22;62116;43.582;1.470;2023-03-24T01:10:52;14.02;84.01
65584;DHT22;62116;43.582;1.470;2023-03-24T01:13:24;14.04;83.93
65584;DHT22;62116;43.582;1.470;2023-03-24T01:15:50;14.05;84.03
65584;DHT22;62116;43.582;1.470;2023-03-24T01:18:16;14.05;84.08
65584;DHT22;62116;43.582;1.470;2023-03-24T01:20:44;14.04;84.07
65584;DHT22;62116;43.582;1.470;2023-03-24T01:23:11;14.05;84.04
65584;DHT22;62116;43.582;1.470;2023-03-24T01:25:37;14.05;84.03
65584;DHT22;62116;43.582;1.470;2023-03-24T01:28:03;14.08;83.92
65584;DHT22;62116;43.582;1.470;2023-03-24T01:30:29;14.08;84.06
65584;DHT22;62116;43.582;1.470;2023-03-24T01:32:55;14.05;84.11
65584;DHT22;62116;43.582;1.470;2023-03-24T01:35:23;14.06;84.06
65584;DHT22;62116;43.582;1.470;2023-03-24T01:37:50;14.06;84.02
65584;DHT22;62116;43.582;1.470;2023-03-24T01:40:19;14.06;83.91
65584;DHT22;62116;43.582;1.470;2023-03-24T01:42:45;14.10;83.87
65584;DHT22;62116;43.582;1.470;2023-03-24T01:48:09;14.10;83.86
65584;DHT22;62116;43.582;1.470;2023-03-24T01:50:36;14.10;83.76
65584;DHT22;62116;43.582;1.470;2023-03-24T01:53:01;14.15;83.70
65584;DHT22;62116;43.582;1.470;2023-03-24T01:55:28;14.18;83.67
65584;DHT22;62116;43.582;1.470;2023-03-24T01:57:57;14.16;83.65
65584;DHT22;62116;43.582;1.470;2023-03-24T02:00:23;14.19;83.50
65584;DHT22;62116;43.582;1.470;2023-03-24T02:02:55;14.22;83.41
65584;DHT22;62116;43.582;1.470;2023-03-24T02:05:25;14.23;83.37
65584;DHT22;62116;43.582;1.470;2023-03-24T02:08:25;14.25;83.39
65584;DHT22;62116;43.582;1.470;2023-03-24T02:10:52;14.25;83.43
65584;DHT22;62116;43.582;1.470;2023-03-24T02:13:19;14.25;83.32
65584;DHT22;62116;43.582;1.470;2023-03-24T02:37:59;14.08;84.20
65584;DHT22;62116;43.582;1.470;2023-03-24T02:43:34;14.05;84.42
65584;DHT22;62116;43.582;1.470;2023-03-24T02:46:07;14.05;84.38
65584;DHT22;62116;43.582;1.470;2023-03-24T02:57:12;14.04;84.68
65584;DHT22;62116;43.582;1.470;2023-03-24T02:59:43;14.02;84.81
65584;DHT22;62116;43.582;1.470;2023-03-24T03:02:15;13.99;84.94
65584;DHT22;62116;43.582;1.470;2023-03-24T03:05:07;13.99;84.91
65584;DHT22;62116;43.582;1.470;2023-03-24T03:07:38;13.95;85.27
65584;DHT22;62116;43.582;1.470;2023-03-24T03:10:15;13.95;85.19
65584;DHT22;62116;43.582;1.470;2023-03-24T03:12:45;13.95;85.29
65584;DHT22;62116;43.582;1.470;2023-03-24T03:15:24;13.94;85.29
65584;DHT22;62116;43.582;1.470;2023-03-24T03:17:57;13.95;85.18
65584;DHT22;62116;43.582;1.470;2023-03-24T03:20:27;14.01;85.11
65584;DHT22;62116;43.582;1.470;2023-03-24T03:23:01;13.95;85.30
65584;DHT22;62116;43.582;1.470;2023-03-24T03:25:32;13.95;85.28
65584;DHT22;62116;43.582;1.470;2023-03-24T03:28:02;13.92;85.44
65584;DHT22;62116;43.582;1.470;2023-03-24T03:30:36;13.92;85.34
65584;DHT22;62116;43.582;1.470;2023-03-24T03:33:30;13.90;85.41
65584;DHT22;62116;43.582;1.470;2023-03-24T03:36:25;13.89;85.54
65584;DHT22;62116;43.582;1.470;2023-03-24T03:39:05;13.88;85.59
65584;DHT22;62116;43.582;1.470;2023-03-24T03:41:33;13.88;85.55
65584;DHT22;62116;43.582;1.470;2023-03-24T03:43:59;13.86;85.56
65584;DHT22;62116;43.582;1.470;2023-03-24T03:46:25;13.88;85.48
65584;DHT22;62116;43.582;1.470;2023-03-24T03:48:51;13.85;85.51
65584;DHT22;62116;43.582;1.470;2023-03-24T03:51:17;13.88;85.49
65584;DHT22;62116;43.582;1.470;2023-03-24T03:53:55;13.86;85.38
65584;DHT22;62116;43.582;1.470;2023-03-24T03:56:25;13.85;85.49
65584;DHT22;62116;43.582;1.470;2023-03-24T03:58:51;13.82;85.47
65584;DHT22;62116;43.582;1.470;2023-03-24T04:01:22;13.82;85.45
65584;DHT22;62116;43.582;1.470;2023-03-24T04:04:09;13.81;85.56
65584;DHT22;62116;43.582;1.470;2023-03-24T04:09:50;13.79;85.51
65584;DHT22;62116;43.582;1.470;2023-03-24T04:20:08;13.69;85.60
65584;DHT22;62116;43.582;1.470;2023-03-24T04:23:03;13.72;85.56
65584;DHT22;62116;43.582;1.470;2023-03-24T04:25:47;13.74;85.55
65584;DHT22;62116;43.582;1.470;2023-03-24T04:28:34;13.69;85.64
65584;DHT22;62116;43.582;1.470;2023-03-24T04:31:10;13.69;85.80
65584;DHT22;62116;43.582;1.470;2023-03-24T04:36:10;13.65;85.84
65584;DHT22;62116;43.582;1.470;2023-03-24T04:38:48;13.67;85.95
65584;DHT22;62116;43.582;1.470;2023-03-24T04:41:15;13.68;86.11
65584;DHT22;62116;43.582;1.470;2023-03-24T04:43:42;13.67;86.15
65584;DHT22;62116;43.582;1.470;2023-03-24T04:46:09;13.65;86.37
65584;DHT22;62116;43.582;1.470;2023-03-24T04:48:35;13.68;86.37
65584;DHT22;62116;43.582;1.470;2023-03-24T04:51:01;13.68;86.44
65584;DHT22;62116;43.582;1.470;2023-03-24T04:53:27;13.67;86.33
65584;DHT22;62116;43.582;1.470;2023-03-24T04:58:37;13.69;86.41
65584;DHT22;62116;43.582;1.470;2023-03-24T05:01:03;13.69;86.37
65584;DHT22;62116;43.582;1.470;2023-03-24T05:03:30;13.69;86.39
65584;DHT22;62116;43.582;1.470;2023-03-24T05:05:56;13.68;86.39
65584;DHT22;62116;43.582;1.470;2023-03-24T05:08:23;13.72;86.20
65584;DHT22;62116;43.582;1.470;2023-03-24T05:10:48;13.71;86.16
65584;DHT22;62116;43.582;1.470;2023-03-24T05:13:14;13.74;85.93
65584;DHT22;62116;43.582;1.470;2023-03-24T05:15:40;13.77;85.93
65584;DHT22;62116;43.582;1.470;2023-03-24T05:18:06;13.74;85.91
65584;DHT22;62116;43.582;1.470;2023-03-24T05:20:32;13.74;85.89
65584;DHT22;62116;43.582;1.470;2023-03-24T05:22:57;13.75;85.85
65584;DHT22;62116;43.582;1.470;2023-03-24T05:25:23;13.72;85.87
65584;DHT22;62116;43.582;1.470;2023-03-24T05:27:48;13.74;85.79
65584;DHT22;62116;43.582;1.470;2023-03-24T05:30:14;13.74;85.79
65584;DHT22;62116;43.582;1.470;2023-03-24T05:32:40;13.74;85.71
65584;DHT22;62116;43.582;1.470;2023-03-24T05:35:06;13.74;85.57
65584;DHT22;62116;43.582;1.470;2023-03-24T05:37:32;13.78;85.53
65584;DHT22;62116;43.582;1.470;2023-03-24T05:39:57;13.74;85.47
65584;DHT22;62116;43.582;1.470;2023-03-24T05:42:23;13.79;85.37
65584;DHT22;62116;43.582;1.470;2023-03-24T05:44:48;13.79;85.27
65584;DHT22;62116;43.582;1.470;2023-03-24T05:47:14;13.82;85.14
65584;DHT22;62116;43.582;1.470;2023-03-24T05:49:43;13.81;85.08
65584;DHT22;62116;43.582;1.470;2023-03-24T05:52:09;13.81;85.01
65584;DHT22;62116;43.582;1.470;2023-03-24T05:54:35;13.81;84.90
65584;DHT22;62116;43.582;1.470;2023-03-24T05:57:01;13.82;84.89
65584;DHT22;62116;43.582;1.470;2023-03-24T05:59:27;13.83;84.80
65584;DHT22;62116;43.582;1.470;2023-03-24T06:01:53;13.86;84.72
65584;DHT22;62116;43.582;1.470;2023-03-24T06:04:22;13.86;84.73
65584;DHT22;62116;43.582;1.470;2023-03-24T06:06:48;13.85;84.68
65584;DHT22;62116;43.582;1.470;2023-03-24T06:09:13;13.85;84.64
65584;DHT22;62116;43.582;1.470;2023-03-24T06:11:42;13.85;84.42
65584;DHT22;62116;43.582;1.470;2023-03-24T06:14:07;13.85;84.39
65584;DHT22;62116;43.582;1.470;2023-03-24T06:16:33;13.85;84.28
65584;DHT22;62116;43.582;1.470;2023-03-24T06:19:03;13.86;84.34
65584;DHT22;62116;43.582;1.470;2023-03-24T06:21:31;13.86;84.32
65584;DHT22;62116;43.582;1.470;2023-03-24T06:23:57;13.83;84.40
65584;DHT22;62116;43.582;1.470;2023-03-24T06:26:22;13.85;84.44
65584;DHT22;62116;43.582;1.470;2023-03-24T06:28:48;13.86;84.36
65584;DHT22;62116;43.582;1.470;2023-03-24T06:31:16;13.86;84.22
65584;DHT22;62116;43.582;1.470;2023-03-24T06:33:44;13.90;84.13
65584;DHT22;62116;43.582;1.470;2023-03-24T06:36:11;13.94;83.98
65584;DHT22;62116;43.582;1.470;2023-03-24T06:38:37;13.94;83.90
65584;DHT22;62116;43.582;1.470;2023-03-24T06:41:03;13.98;83.87
65584;DHT22;62116;43.582;1.470;2023-03-24T06:43:29;13.94;83.88
65584;DHT22;62116;43.582;1.470;2023-03-24T06:45:55;13.98;83.68
65584;DHT22;62116;43.582;1.470;2023-03-24T06:48:21;13.98;83.65
65584;DHT22;62116;43.582;1.470;2023-03-24T06:50:47;14.04;83.44
65584;DHT22;62116;43.582;1.470;2023-03-24T06:53:12;14.18;83.14
65584;DHT22;62116;43.582;1.470;2023-03-24T06:55:38;14.23;82.93
65584;DHT22;62116;43.582;1.470;2023-03-24T06:58:04;14.36;82.47
65584;DHT22;62116;43.582;1.470;2023-03-24T07:00:29;14.42;82.16
65584;DHT22;62116;43.582;1.470;2023-03-24T07:02:55;14.47;81.83
65584;DHT22;62116;43.582;1.470;2023-03-24T07:05:21;14.59;81.52
65584;DHT22;62116;43.582;1.470;2023-03-24T07:07:48;14.69;81.22
65584;DHT22;62116;43.582;1.470;2023-03-24T07:10:14;14.73;80.81
65584;DHT22;62116;43.582;1.470;2023-03-24T07:12:39;14.94;80.33
65584;DHT22;62116;43.582;1.470;2023-03-24T07:15:06;15.03;80.07
65584;DHT22;62116;43.582;1.470;2023-03-24T07:17:33;15.12;79.66
65584;DHT22;62116;43.582;1.470;2023-03-24T07:19:58;15.23;79.24
65584;DHT22;62116;43.582;1.470;2023-03-24T07:22:23;15.31;78.91
65584;DHT22;62116;43.582;1.470;2023-03-24T07:24:49;15.37;78.40
65584;DHT22;62116;43.582;1.470;2023-03-24T07:27:15;15.42;77.93
65584;DHT22;62116;43.582;1.470;2023-03-24T07:29:40;15.42;78.08
65584;DHT22;62116;43.582;1.470;2023-03-24T07:32:05;15.39;77.79
65584;DHT22;62116;43.582;1.470;2023-03-24T07:34:32;15.44;77.55
65584;DHT22;62116;43.582;1.470;2023-03-24T07:36:58;15.35;77.72
65584;DHT22;62116;43.582;1.470;2023-03-24T07:39:23;15.39;77.87
65584;DHT22;62116;43.582;1.470;2023-03-24T07:41:48;15.45;77.68
65584;DHT22;62116;43.582;1.470;2023-03-24T07:44:14;15.59;77.26
65584;DHT22;62116;43.582;1.470;2023-03-24T07:46:40;15.75;76.87
65584;DHT22;62116;43.582;1.470;2023-03-24T07:49:05;15.65;76.85
65584;DHT22;62116;43.582;1.470;2023-03-24T07:51:31;15.69;76.64
65584;DHT22;62116;43.582;1.470;2023-03-24T07:53:56;15.82;76.51
65584;DHT22;62116;43.582;1.470;2023-03-24T07:56:22;15.86;76.17
65584;DHT22;62116;43.582;1.470;2023-03-24T07:58:48;15.89;75.89
65584;DHT22;62116;43.582;1.470;2023-03-24T08:01:14;15.95;75.91
65584;DHT22;62116;43.582;1.470;2023-03-24T08:03:39;15.91;75.74
65584;DHT22;62116;43.582;1.470;2023-03-24T08:06:07;15.95;75.42
65584;DHT22;62116;43.582;1.470;2023-03-24T08:08:33;15.98;75.37
65584;DHT22;62116;43.582;1.470;2023-03-24T08:10:58;16.02;75.35
65584;DHT22;62116;43.582;1.470;2023-03-24T08:13:24;16.05;75.30
65584;DHT22;62116;43.582;1.470;2023-03-24T08:15:50;16.12;75.45
65584;DHT22;62116;43.582;1.470;2023-03-24T08:18:18;16.16;75.01
65584;DHT22;62116;43.582;1.470;2023-03-24T08:20:45;16.20;74.63
65584;DHT22;62116;43.582;1.470;2023-03-24T08:23:10;16.29;74.54
65584;DHT22;62116;43.582;1.470;2023-03-24T08:25:36;16.32;74.85
65584;DHT22;62116;43.582;1.470;2023-03-24T08:28:02;16.30;74.47
65584;DHT22;62116;43.582;1.470;2023-03-24T08:30:27;16.42;74.64
65584;DHT22;62116;43.582;1.470;2023-03-24T08:32:55;16.47;74.35
65584;DHT22;62116;43.582;1.470;2023-03-24T08:35:23;16.47;73.78
65584;DHT22;62116;43.582;1.470;2023-03-24T08:37:49;16.56;74.05
65584;DHT22;62116;43.582;1.470;2023-03-24T08:40:17;16.61;73.99
65584;DHT22;62116;43.582;1.470;2023-03-24T08:42:48;16.67;73.45
65584;DHT22;62116;43.582;1.470;2023-03-24T08:45:14;16.74;73.18
65584;DHT22;62116;43.582;1.470;2023-03-24T08:47:40;16.80;72.74
65584;DHT22;62116;43.582;1.470;2023-03-24T08:50:08;16.88;72.79
65584;DHT22;62116;43.582;1.470;2023-03-24T08:52:34;16.98;72.67
65584;DHT22;62116;43.582;1.470;2023-03-24T08:54:59;17.20;71.82
65584;DHT22;62116;43.582;1.470;2023-03-24T08:57:25;17.43;71.22
65584;DHT22;62116;43.582;1.470;2023-03-24T08:59:51;17.66;70.37
65584;DHT22;62116;43.582;1.470;2023-03-24T09:02:16;18.00;69.42
65584;DHT22;62116;43.582;1.470;2023-03-24T09:04:41;18.37;68.64
65584;DHT22;62116;43.582;1.470;2023-03-24T09:07:08;18.68;67.11
65584;DHT22;62116;43.582;1.470;2023-03-24T09:09:34;19.01;67.12
65584;DHT22;62116;43.582;1.470;2023-03-24T09:11:59;19.21;66.13
65584;DHT22;62116;43.582;1.470;2023-03-24T09:14:26;19.45;64.95
65584;DHT22;62116;43.582;1.470;2023-03-24T09:16:51;19.52;65.26
65584;DHT22;62116;43.582;1.470;2023-03-24T09:19:17;19.56;63.47
65584;DHT22;62116;43.582;1.470;2023-03-24T09:21:45;19.55;63.97
65584;DHT22;62116;43.582;1.470;2023-03-24T09:24:11;19.82;63.46
65584;DHT22;62116;43.582;1.470;2023-03-24T09:26:36;19.90;63.89
65584;DHT22;62116;43.582;1.470;2023-03-24T09:29:02;19.77;63.77
65584;DHT22;62116;43.582;1.470;2023-03-24T09:31:27;19.65;63.39
65584;DHT22;62116;43.582;1.470;2023-03-24T09:33:53;19.62;63.49
65584;DHT22;62116;43.582;1.470;2023-03-24T09:36:18;19.48;64.07
65584;DHT22;62116;43.582;1.470;2023-03-24T09:38:43;19.45;64.20
65584;DHT22;62116;43.582;1.470;2023-03-24T09:41:17;19.36;64.50
65584;DHT22;62116;43.582;1.470;2023-03-24T09:43:54;19.25;64.77
65584;DHT22;62116;43.582;1.470;2023-03-24T09:46:28;19.12;65.08
65584;DHT22;62116;43.582;1.470;2023-03-24T09:48:56;19.08;66.13
65584;DHT22;62116;43.582;1.470;2023-03-24T09:51:26;18.95;66.32
65584;DHT22;62116;43.582;1.470;2023-03-24T09:54:17;18.92;66.53
65584;DHT22;62116;43.582;1.470;2023-03-24T09:56:46;18.85;66.37
65584;DHT22;62116;43.582;1.470;2023-03-24T09:59:28;18.77;66.48
65584;DHT22;62116;43.582;1.470;2023-03-24T10:01:56;18.75;66.36
65584;DHT22;62116;43.582;1.470;2023-03-24T10:04:25;18.68;66.58
65584;DHT22;62116;43.582;1.470;2023-03-24T10:07:18;18.74;66.58
65584;DHT22;62116;43.582;1.470;2023-03-24T10:09:55;18.71;66.79
65584;DHT22;62116;43.582;1.470;2023-03-24T10:20:12;18.90;67.03
65584;DHT22;62116;43.582;1.470;2023-03-24T10:27:46;18.97;65.16
65584;DHT22;62116;43.582;1.470;2023-03-24T10:30:25;18.97;65.37
65584;DHT22;62116;43.582;1.470;2023-03-24T10:32:52;18.95;65.85
65584;DHT22;62116;43.582;1.470;2023-03-24T10:35:25;19.02;65.38
65584;DHT22;62116;43.582;1.470;2023-03-24T10:37:52;19.07;65.71
65584;DHT22;62116;43.582;1.470;2023-03-24T10:40:25;19.12;65.72
65584;DHT22;62116;43.582;1.470;2023-03-24T10:42:51;19.16;65.96
65584;DHT22;62116;43.582;1.470;2023-03-24T10:45:31;19.14;65.83
65584;DHT22;62116;43.582;1.470;2023-03-24T10:48:00;19.14;65.09
65584;DHT22;62116;43.582;1.470;2023-03-24T10:50:28;19.18;64.82
65584;DHT22;62116;43.582;1.470;2023-03-24T10:52:54;19.34;64.20
65584;DHT22;62116;43.582;1.470;2023-03-24T10:55:22;19.41;63.84
65584;DHT22;62116;43.582;1.470;2023-03-24T10:57:51;19.49;63.95
65584;DHT22;62116;43.582;1.470;2023-03-24T11:00:27;19.66;63.37
65584;DHT22;62116;43.582;1.470;2023-03-24T11:03:00;19.72;63.00
65584;DHT22;62116;43.582;1.470;2023-03-24T11:05:30;19.72;62.96
65584;DHT22;62116;43.582;1.470;2023-03-24T11:08:13;19.73;62.13
65584;DHT22;62116;43.582;1.470;2023-03-24T11:10:43;19.93;61.92
65584;DHT22;62116;43.582;1.470;2023-03-24T11:13:17;20.03;61.23
65584;DHT22;62116;43.582;1.470;2023-03-24T11:16:13;20.10;61.61
65584;DHT22;62116;43.582;1.470;2023-03-24T11:19:02;20.20;61.78
65584;DHT22;62116;43.582;1.470;2023-03-24T11:21:29;20.24;59.52
65584;DHT22;62116;43.582;1.470;2023-03-24T11:24:00;20.26;60.70
65584;DHT22;62116;43.582;1.470;2023-03-24T11:26:30;20.29;60.79
65584;DHT22;62116;43.582;1.470;2023-03-24T11:29:01;20.40;60.53
65584;DHT22;62116;43.582;1.470;2023-03-24T11:31:29;20.44;59.79
65584;DHT22;62116;43.582;1.470;2023-03-24T11:36:46;20.44;59.51
65584;DHT22;62116;43.582;1.470;2023-03-24T11:47:07;20.20;59.79
65584;DHT22;62116;43.582;1.470;2023-03-24T11:49:42;20.21;59.79
65584;DHT22;62116;43.582;1.470;2023-03-24T11:52:19;20.26;59.97
65584;DHT22;62116;43.582;1.470;2023-03-24T11:54:46;20.30;60.49
65584;DHT22;62116;43.582;1.470;2023-03-24T11:57:14;20.29;59.87
65584;DHT22;62116;43.582;1.470;2023-03-24T11:59:49;20.26;60.14
65584;DHT22;62116;43.582;1.470;2023-03-24T12:13:12;20.14;60.40
65584;DHT22;62116;43.582;1.470;2023-03-24T12:23:43;19.66;61.05
65584;DHT22;62116;43.582;1.470;2023-03-24T12:26:21;19.61;61.55
65584;DHT22;62116;43.582;1.470;2023-03-24T12:32:02;19.39;62.17
65584;DHT22;62116;43.582;1.470;2023-03-24T12:34:39;19.26;63.27
65584;DHT22;62116;43.582;1.470;2023-03-24T12:42:39;19.01;63.73
65584;DHT22;62116;43.582;1.470;2023-03-24T12:56:21;18.59;63.42
65584;DHT22;62116;43.582;1.470;2023-03-24T13:01:24;18.34;62.02
65584;DHT22;62116;43.582;1.470;2023-03-24T13:04:02;18.20;61.44
65584;DHT22;62116;43.582;1.470;2023-03-24T13:06:44;18.10;61.18
65584;DHT22;62116;43.582;1.470;2023-03-24T13:09:18;18.00;61.36
65584;DHT22;62116;43.582;1.470;2023-03-24T13:11:57;17.87;61.78
65584;DHT22;62116;43.582;1.470;2023-03-24T13:14:39;17.78;62.31
65584;DHT22;62116;43.582;1.470;2023-03-24T13:17:17;17.65;62.98
65584;DHT22;62116;43.582;1.470;2023-03-24T13:19:45;17.65;63.85
65584;DHT22;62116;43.582;1.470;2023-03-24T13:22:15;17.52;64.46
65584;DHT22;62116;43.582;1.470;2023-03-24T13:24:43;17.49;64.23
65584;DHT22;62116;43.582;1.470;2023-03-24T13:27:22;17.48;64.10
65584;DHT22;62116;43.582;1.470;2023-03-24T13:33:10;17.48;63.39
65584;DHT22;62116;43.582;1.470;2023-03-24T13:38:46;17.53;62.81
65584;DHT22;62116;43.582;1.470;2023-03-24T13:41:23;17.53;61.74
65584;DHT22;62116;43.582;1.470;2023-03-24T13:44:08;17.52;61.07
65584;DHT22;62116;43.582;1.470;2023-03-24T13:46:40;17.48;60.71
65584;DHT22;62116;43.582;1.470;2023-03-24T13:49:11;17.48;61.03
65584;DHT22;62116;43.582;1.470;2023-03-24T13:51:42;17.46;61.08
65584;DHT22;62116;43.582;1.470;2023-03-24T13:54:23;17.53;61.27
65584;DHT22;62116;43.582;1.470;2023-03-24T13:57:11;17.51;61.28
65584;DHT22;62116;43.582;1.470;2023-03-24T14:00:01;17.46;61.57
65584;DHT22;62116;43.582;1.470;2023-03-24T14:05:59;17.48;62.36
65584;DHT22;62116;43.582;1.470;2023-03-24T14:08:40;17.41;62.31
65584;DHT22;62116;43.582;1.470;2023-03-24T14:17:15;17.34;61.93
65584;DHT22;62116;43.582;1.470;2023-03-24T14:19:43;17.34;61.94
65584;DHT22;62116;43.582;1.470;2023-03-24T14:22:14;17.28;61.09
65584;DHT22;62116;43.582;1.470;2023-03-24T14:24:44;17.21;60.93
65584;DHT22;62116;43.582;1.470;2023-03-24T14:30:00;17.03;61.13
65584;DHT22;62116;43.582;1.470;2023-03-24T14:32:26;17.00;61.33
65584;DHT22;62116;43.582;1.470;2023-03-24T14:34:56;16.92;60.66
65584;DHT22;62116;43.582;1.470;2023-03-24T14:37:25;16.85;60.47
65584;DHT22;62116;43.582;1.470;2023-03-24T14:39:52;16.80;60.43
65584;DHT22;62116;43.582;1.470;2023-03-24T14:45:39;16.73;59.55
65584;DHT22;62116;43.582;1.470;2023-03-24T14:48:24;16.63;59.33
65584;DHT22;62116;43.582;1.470;2023-03-24T14:50:52;16.56;58.23
65584;DHT22;62116;43.582;1.470;2023-03-24T14:53:19;16.52;57.98
65584;DHT22;62116;43.582;1.470;2023-03-24T14:55:46;16.42;56.86
65584;DHT22;62116;43.582;1.470;2023-03-24T14:58:25;16.33;57.06
65584;DHT22;62116;43.582;1.470;2023-03-24T15:00:57;16.29;57.84
65584;DHT22;62116;43.582;1.470;2023-03-24T15:03:31;16.23;57.75
65584;DHT22;62116;43.582;1.470;2023-03-24T15:06:13;16.20;58.16
65584;DHT22;62116;43.582;1.470;2023-03-24T15:08:44;16.16;58.41
65584;DHT22;62116;43.582;1.470;2023-03-24T15:11:10;16.16;58.27
65584;DHT22;62116;43.582;1.470;2023-03-24T15:13:42;16.14;58.11
65584;DHT22;62116;43.582;1.470;2023-03-24T15:19:30;16.12;58.34
65584;DHT22;62116;43.582;1.470;2023-03-24T15:24:00;16.10;59.60
65584;DHT22;62116;43.582;1.470;2023-03-24T15:26:28;16.12;59.65
65584;DHT22;62116;43.582;1.470;2023-03-24T15:29:04;16.06;59.73
65584;DHT22;62116;43.582;1.470;2023-03-24T15:31:30;15.99;59.77
65584;DHT22;62116;43.582;1.470;2023-03-24T15:36:57;15.93;60.27
65584;DHT22;62116;43.582;1.470;2023-03-24T15:39:37;15.91;59.79
65584;DHT22;62116;43.582;1.470;2023-03-24T15:42:07;15.91;60.20
65584;DHT22;62116;43.582;1.470;2023-03-24T15:44:38;15.85;59.90
65584;DHT22;62116;43.582;1.470;2023-03-24T15:47:12;15.82;60.22
65584;DHT22;62116;43.582;1.470;2023-03-24T15:49:46;15.82;60.50
65584;DHT22;62116;43.582;1.470;2023-03-24T15:52:35;15.82;60.83
65584;DHT22;62116;43.582;1.470;2023-03-24T15:55:34;15.78;61.10
65584;DHT22;62116;43.582;1.470;2023-03-24T15:58:18;15.78;61.38
65584;DHT22;62116;43.582;1.470;2023-03-24T16:00:45;15.77;61.71
65584;DHT22;62116;43.582;1.470;2023-03-24T16:03:11;15.79;61.68
65584;DHT22;62116;43.582;1.470;2023-03-24T16:05:45;15.83;62.00
65584;DHT22;62116;43.582;1.470;2023-03-24T16:08:31;15.88;62.18
65584;DHT22;62116;43.582;1.470;2023-03-24T16:11:04;15.91;62.23
65584;DHT22;62116;43.582;1.470;2023-03-24T16:13:32;15.89;62.16
65584;DHT22;62116;43.582;1.470;2023-03-24T16:16:01;15.86;61.76
65584;DHT22;62116;43.582;1.470;2023-03-24T16:18:33;15.86;61.00
65584;DHT22;62116;43.582;1.470;2023-03-24T16:21:08;15.86;60.25
65584;DHT22;62116;43.582;1.470;2023-03-24T16:23:36;15.82;60.26
65584;DHT22;62116;43.582;1.470;2023-03-24T16:26:01;15.79;60.25
65584;DHT22;62116;43.582;1.470;2023-03-24T16:28:27;15.81;59.91
65584;DHT22;62116;43.582;1.470;2023-03-24T16:30:59;15.78;59.69
65584;DHT22;62116;43.582;1.470;2023-03-24T16:33:25;15.75;59.70
65584;DHT22;62116;43.582;1.470;2023-03-24T16:35:51;15.69;59.07
65584;DHT22;62116;43.582;1.470;2023-03-24T16:38:17;15.72;59.05
65584;DHT22;62116;43.582;1.470;2023-03-24T16:40:48;15.69;59.27
65584;DHT22;62116;43.582;1.470;2023-03-24T16:43:14;15.75;59.14
65584;DHT22;62116;43.582;1.470;2023-03-24T16:45:40;15.72;58.77
65584;DHT22;62116;43.582;1.470;2023-03-24T16:48:09;15.73;58.69
65584;DHT22;62116;43.582;1.470;2023-03-24T16:50:40;15.77;57.70
65584;DHT22;62116;43.582;1.470;2023-03-24T16:53:07;15.77;57.50
65584;DHT22;62116;43.582;1.470;2023-03-24T16:55:34;15.73;57.33
65584;DHT22;62116;43.582;1.470;2023-03-24T16:58:00;15.69;57.34
65584;DHT22;62116;43.582;1.470;2023-03-24T17:00:26;15.73;57.42
65584;DHT22;62116;43.582;1.470;2023-03-24T17:02:54;15.73;57.71
65584;DHT22;62116;43.582;1.470;2023-03-24T17:07:50;15.81;58.08
65584;DHT22;62116;43.582;1.470;2023-03-24T17:10:16;15.82;58.33
65584;DHT22;62116;43.582;1.470;2023-03-24T17:12:41;15.81;58.36
65584;DHT22;62116;43.582;1.470;2023-03-24T17:15:18;15.77;58.33
65584;DHT22;62116;43.582;1.470;2023-03-24T17:17:44;15.75;58.57
65584;DHT22;62116;43.582;1.470;2023-03-24T17:20:10;15.73;58.40
65584;DHT22;62116;43.582;1.470;2023-03-24T17:22:36;15.75;58.10
65584;DHT22;62116;43.582;1.470;2023-03-24T17:25:01;15.68;57.93
65584;DHT22;62116;43.582;1.470;2023-03-24T17:27:28;15.68;58.22
65584;DHT22;62116;43.582;1.470;2023-03-24T17:29:54;15.69;58.52
65584;DHT22;62116;43.582;1.470;2023-03-24T17:32:19;15.65;59.05
65584;DHT22;62116;43.582;1.470;2023-03-24T17:34:44;15.66;58.67
65584;DHT22;62116;43.582;1.470;2023-03-24T17:37:10;15.61;58.95
65584;DHT22;62116;43.582;1.470;2023-03-24T17:39:36;15.61;59.43
65584;DHT22;62116;43.582;1.470;2023-03-24T17:42:02;15.65;59.64
65584;DHT22;62116;43.582;1.470;2023-03-24T17:44:28;15.66;58.95
65584;DHT22;62116;43.582;1.470;2023-03-24T17:46:53;15.63;58.86
65584;DHT22;62116;43.582;1.470;2023-03-24T17:49:19;15.68;58.98
65584;DHT22;62116;43.582;1.470;2023-03-24T17:51:45;15.61;58.93
65584;DHT22;62116;43.582;1.470;2023-03-24T17:54:11;15.59;58.47
65584;DHT22;62116;43.582;1.470;2023-03-24T17:56:37;15.63;58.54
65584;DHT22;62116;43.582;1.470;2023-03-24T17:59:02;15.59;58.72
65584;DHT22;62116;43.582;1.470;2023-03-24T18:01:28;15.57;58.74
65584;DHT22;62116;43.582;1.470;2023-03-24T18:03:55;15.54;58.82
65584;DHT22;62116;43.582;1.470;2023-03-24T18:06:21;15.52;59.04
65584;DHT22;62116;43.582;1.470;2023-03-24T18:08:49;15.49;58.92
65584;DHT22;62116;43.582;1.470;2023-03-24T18:11:15;15.51;59.25
65584;DHT22;62116;43.582;1.470;2023-03-24T18:13:41;15.45;59.45
65584;DHT22;62116;43.582;1.470;2023-03-24T18:16:07;15.39;59.67